createdAt,value
2018-06-05T00:00:53.747Z,29.32
2018-06-05T00:01:57.995Z,30.60
2018-06-05T00:03:02.256Z,30.65
2018-06-05T00:04:08.250Z,30.05
2018-06-05T00:05:12.380Z,31.65
2018-06-05T00:06:16.671Z,31.23
2018-06-05T00:07:21.760Z,31.30
2018-06-05T00:08:27.621Z,30.85
2018-06-05T00:09:34.146Z,31.80
2018-06-05T00:10:39.846Z,32.23
2018-06-05T00:11:45.112Z,32.27
2018-06-05T00:12:49.342Z,31.55
2018-06-05T00:13:53.763Z,31.75
2018-06-05T00:14:58.044Z,33.78
2018-06-05T00:16:02.857Z,33.48
2018-06-05T00:17:08.089Z,32.50
2018-06-05T00:18:12.502Z,33.80
2018-06-05T00:19:16.613Z,33.50
2018-06-05T00:20:21.015Z,33.00
2018-06-05T00:21:25.169Z,32.17
2018-06-05T00:22:29.764Z,33.85
2018-06-05T00:23:34.001Z,34.67
2018-06-05T00:24:38.393Z,35.00
2018-06-05T00:25:42.732Z,32.93
2018-06-05T00:26:49.675Z,33.30
2018-06-05T00:27:55.784Z,35.95
2018-06-05T00:28:59.906Z,33.85
2018-06-05T00:30:04.984Z,33.85
2018-06-05T00:31:09.409Z,33.58
2018-06-05T00:32:13.614Z,33.53
2018-06-05T00:33:18.024Z,36.03
2018-06-05T00:34:22.149Z,35.08
2018-06-05T00:35:31.095Z,34.15
2018-06-05T00:36:36.195Z,35.80
2018-06-05T00:37:40.577Z,35.00
2018-06-05T00:38:45.851Z,35.55
2018-06-05T00:39:51.286Z,36.23
2018-06-05T00:40:56.644Z,35.90
2018-06-05T00:42:01.551Z,34.48
2018-06-05T00:43:05.972Z,34.85
2018-06-05T00:44:10.784Z,36.08
2018-06-05T00:45:18.784Z,35.30
2018-06-05T00:46:23.285Z,36.08
2018-06-05T00:47:30.193Z,35.83
2018-06-05T00:48:34.802Z,37.13
2018-06-05T00:49:39.255Z,37.40
2018-06-05T00:50:45.611Z,37.70
2018-06-05T00:52:01.477Z,37.25
2018-06-05T00:53:06.407Z,38.15
2018-06-05T00:54:10.839Z,38.13
2018-06-05T00:55:15.091Z,38.20
2018-06-05T00:56:19.326Z,39.10
2018-06-05T00:57:25.023Z,39.00
2018-06-05T00:58:29.260Z,37.20
2018-06-05T00:59:33.636Z,38.95
2018-06-05T01:00:38.261Z,38.95
2018-06-05T01:01:42.549Z,37.88
2018-06-05T01:02:47.030Z,38.60
2018-06-05T01:03:52.049Z,39.03
2018-06-05T01:04:56.551Z,39.92
2018-06-05T01:06:08.582Z,38.88
2018-06-05T01:07:20.408Z,40.23
2018-06-05T01:08:29.393Z,42.40
2018-06-05T01:09:40.481Z,42.78
2018-06-05T01:10:46.452Z,39.48
2018-06-05T01:13:04.175Z,39.83
2018-06-05T01:14:08.428Z,38.95
2018-06-05T01:15:12.656Z,42.78
2018-06-05T01:16:17.604Z,37.30
2018-06-05T01:17:23.668Z,39.53
2018-06-05T01:18:27.912Z,39.50
2018-06-05T01:19:32.292Z,40.88
2018-06-05T01:20:36.774Z,41.55
2018-06-05T01:21:41.615Z,42.53
2018-06-05T01:22:46.290Z,40.12
2018-06-05T01:23:50.360Z,40.25
2018-06-05T01:24:55.583Z,38.83
2018-06-05T01:25:59.914Z,38.67
2018-06-05T01:27:04.269Z,40.48
2018-06-05T01:28:08.486Z,40.03
2018-06-05T01:29:12.930Z,40.33
2018-06-05T01:30:17.500Z,39.90
2018-06-05T01:31:22.569Z,41.05
2018-06-05T01:32:27.053Z,41.40
2018-06-05T01:33:31.768Z,40.90
2018-06-05T01:34:35.982Z,41.45
2018-06-05T01:35:40.304Z,41.95
2018-06-05T01:36:44.713Z,40.52
2018-06-05T01:37:48.918Z,42.27
2018-06-05T01:38:53.523Z,41.58
2018-06-05T01:39:58.043Z,43.40
2018-06-05T01:41:02.826Z,44.25
2018-06-05T01:42:07.358Z,40.52
2018-06-05T01:43:11.812Z,41.30
2018-06-05T01:44:16.043Z,40.45
2018-06-05T01:45:20.556Z,41.55
2018-06-05T01:46:25.293Z,43.20
2018-06-05T01:47:29.683Z,42.65
2018-06-05T01:48:34.465Z,41.98
2018-06-05T01:49:41.974Z,42.48
2018-06-05T01:50:46.355Z,40.80
2018-06-05T01:51:50.598Z,42.60
2018-06-05T01:52:55.392Z,40.73
2018-06-05T01:53:59.922Z,40.75
2018-06-05T01:55:04.361Z,42.40
2018-06-05T01:56:08.596Z,43.78
2018-06-05T01:57:13.864Z,42.90
2018-06-05T01:58:17.974Z,44.18
2018-06-05T01:59:22.303Z,42.90
2018-06-05T02:00:27.067Z,43.02
2018-06-05T02:01:31.289Z,42.88
2018-06-05T02:02:36.556Z,42.30
2018-06-05T02:03:41.506Z,43.30
2018-06-05T02:04:45.698Z,45.40
2018-06-05T02:05:50.128Z,47.10
2018-06-05T02:06:54.329Z,44.67
2018-06-05T02:07:59.237Z,44.38
2018-06-05T02:09:03.727Z,43.38
2018-06-05T02:10:08.157Z,44.10
2018-06-05T02:11:12.251Z,44.58
2018-06-05T02:12:17.102Z,43.90
2018-06-05T02:13:21.927Z,44.95
2018-06-05T02:14:26.583Z,43.70
2018-06-05T02:15:34.683Z,45.63
2018-06-05T02:16:38.948Z,43.65
2018-06-05T02:17:43.147Z,45.78
2018-06-05T02:18:47.303Z,49.27
2018-06-05T02:19:51.507Z,47.05
2018-06-05T02:20:56.262Z,53.68
2018-06-05T02:22:00.479Z,49.23
2018-06-05T02:23:05.068Z,49.08
2018-06-05T02:24:09.242Z,51.20
2018-06-05T02:25:13.479Z,51.77
2018-06-05T02:26:18.340Z,42.58
2018-06-05T02:27:22.763Z,41.33
2018-06-05T02:28:27.134Z,40.20
2018-06-05T02:29:31.440Z,41.55
2018-06-05T02:30:35.731Z,40.73
2018-06-05T02:31:44.030Z,42.25
2018-06-05T02:32:48.733Z,42.25
2018-06-05T02:33:53.267Z,42.75
2018-06-05T02:34:57.154Z,41.55
2018-06-05T02:36:04.554Z,45.17
2018-06-05T02:37:08.762Z,43.25
2018-06-05T02:38:12.908Z,45.00
2018-06-05T02:39:17.016Z,43.60
2018-06-05T02:40:21.142Z,41.75
2018-06-05T02:41:25.428Z,43.42
2018-06-05T02:42:29.633Z,46.02
2018-06-05T02:43:33.863Z,45.08
2018-06-05T02:44:38.255Z,45.52
2018-06-05T02:45:43.690Z,44.53
2018-06-05T02:46:48.071Z,43.75
2018-06-05T02:47:52.379Z,44.33
2018-06-05T02:48:56.780Z,43.23
2018-06-05T02:50:01.017Z,41.77
2018-06-05T02:51:05.561Z,42.10
2018-06-05T02:52:09.791Z,44.53
2018-06-05T02:53:14.006Z,43.70
2018-06-05T02:54:18.275Z,44.13
2018-06-05T02:55:22.898Z,44.27
2018-06-05T02:56:27.404Z,45.35
2018-06-05T02:57:31.798Z,45.60
2018-06-05T02:58:36.005Z,44.90
2018-06-05T02:59:40.921Z,44.18
2018-06-05T03:00:45.110Z,45.70
2018-06-05T03:01:49.379Z,42.88
2018-06-05T03:02:53.599Z,44.10
2018-06-05T03:03:57.825Z,45.50
2018-06-05T03:05:02.307Z,43.65
2018-06-05T03:06:06.595Z,45.95
2018-06-05T03:07:11.016Z,46.00
2018-06-05T03:08:15.261Z,44.42
2018-06-05T03:09:19.478Z,44.15
2018-06-05T03:10:23.710Z,44.20
2018-06-05T03:11:27.913Z,45.30
2018-06-05T03:12:32.471Z,44.88
2018-06-05T03:13:36.702Z,43.68
2018-06-05T03:14:40.990Z,44.88
2018-06-05T03:15:45.270Z,43.50
2018-06-05T03:16:49.490Z,44.77
2018-06-05T03:17:53.761Z,44.60
2018-06-05T03:19:00.186Z,44.20
2018-06-05T03:20:04.513Z,43.17
2018-06-05T03:21:09.144Z,45.03
2018-06-05T03:22:13.450Z,45.10
2018-06-05T03:23:17.675Z,44.05
2018-06-05T03:24:21.992Z,41.60
2018-06-05T03:25:26.482Z,42.33
2018-06-05T03:26:30.958Z,44.23
2018-06-05T03:27:35.491Z,42.65
2018-06-05T03:28:39.944Z,44.58
2018-06-05T03:29:44.193Z,42.73
2018-06-05T03:30:49.592Z,42.25
2018-06-05T03:31:53.783Z,42.33
2018-06-05T03:32:58.311Z,44.55
2018-06-05T03:34:02.539Z,42.65
2018-06-05T03:35:07.070Z,42.13
2018-06-05T03:36:11.492Z,41.03
2018-06-05T03:37:15.763Z,42.98
2018-06-05T03:38:19.998Z,41.53
2018-06-05T03:39:24.480Z,42.83
2018-06-05T03:40:29.678Z,42.30
2018-06-05T03:41:33.878Z,42.90
2018-06-05T03:42:38.376Z,41.30
2018-06-05T03:43:43.354Z,40.00
2018-06-05T03:44:48.161Z,41.45
2018-06-05T03:45:54.255Z,40.60
2018-06-05T03:46:58.474Z,40.03
2018-06-05T03:48:03.723Z,38.10
2018-06-05T03:49:08.170Z,41.40
2018-06-05T03:50:12.796Z,41.28
2018-06-05T03:51:17.214Z,41.70
2018-06-05T03:52:21.391Z,39.15
2018-06-05T03:53:25.582Z,41.58
2018-06-05T03:54:29.994Z,40.52
2018-06-05T03:55:34.516Z,41.45
2018-06-05T03:56:38.834Z,41.65
2018-06-05T03:57:43.052Z,38.83
2018-06-05T03:58:47.855Z,40.85
2018-06-05T03:59:52.105Z,42.03
2018-06-05T04:00:57.439Z,43.00
2018-06-05T04:02:02.251Z,41.45
2018-06-05T04:03:06.483Z,40.75
2018-06-05T04:04:10.934Z,42.13
2018-06-05T04:05:15.166Z,41.23
2018-06-05T04:06:19.400Z,42.43
2018-06-05T04:07:23.600Z,42.27
2018-06-05T04:08:28.086Z,43.50
2018-06-05T04:09:32.882Z,38.42
2018-06-05T04:10:37.284Z,40.30
2018-06-05T04:11:41.522Z,41.00
2018-06-05T04:12:46.723Z,41.05
2018-06-05T04:13:52.014Z,41.65
2018-06-05T04:14:57.687Z,41.00
2018-06-05T04:16:01.920Z,40.98
2018-06-05T04:17:07.421Z,41.05
2018-06-05T04:18:11.632Z,39.95
2018-06-05T04:19:16.826Z,40.85
2018-06-05T04:20:21.132Z,41.48
2018-06-05T04:21:25.284Z,39.77
2018-06-05T04:22:31.128Z,41.58
2018-06-05T04:23:36.579Z,41.68
2018-06-05T04:24:41.097Z,40.83
2018-06-05T04:25:45.675Z,42.60
2018-06-05T04:26:49.999Z,42.13
2018-06-05T04:27:54.212Z,41.37
2018-06-05T04:28:59.117Z,39.65
2018-06-05T04:30:04.144Z,40.38
2018-06-05T04:31:09.350Z,41.98
2018-06-05T04:32:13.573Z,40.92
2018-06-05T04:33:18.138Z,41.05
2018-06-05T04:34:22.907Z,40.78
2018-06-05T04:35:27.127Z,40.38
2018-06-05T04:36:31.459Z,38.33
2018-06-05T04:37:35.573Z,39.25
2018-06-05T04:38:39.763Z,38.58
2018-06-05T04:39:44.097Z,38.85
2018-06-05T04:40:48.344Z,41.05
2018-06-05T04:41:52.685Z,40.23
2018-06-05T04:42:57.067Z,37.93
2018-06-05T04:44:01.251Z,40.48
2018-06-05T04:45:05.858Z,38.78
2018-06-05T04:46:10.326Z,40.45
2018-06-05T04:47:14.839Z,39.55
2018-06-05T04:48:21.271Z,39.58
2018-06-05T04:49:25.609Z,38.97
2018-06-05T04:50:29.844Z,38.65
2018-06-05T04:51:34.066Z,39.42
2018-06-05T04:52:38.916Z,40.40
2018-06-05T04:53:43.182Z,38.17
2018-06-05T04:54:47.427Z,38.53
2018-06-05T04:55:51.634Z,38.50
2018-06-05T04:56:56.905Z,37.83
2018-06-05T04:58:02.499Z,39.58
2018-06-05T04:59:07.044Z,38.38
2018-06-05T05:00:11.300Z,37.50
2018-06-05T05:01:15.984Z,36.25
2018-06-05T05:02:20.246Z,37.10
2018-06-05T05:03:24.550Z,35.55
2018-06-05T05:04:29.261Z,36.55
2018-06-05T05:05:33.462Z,34.10
2018-06-05T05:06:38.029Z,34.18
2018-06-05T05:07:42.336Z,35.08
2018-06-05T05:08:46.622Z,35.13
2018-06-05T05:09:50.875Z,35.43
2018-06-05T05:10:55.093Z,34.78
2018-06-05T05:12:01.048Z,33.23
2018-06-05T05:13:05.560Z,34.60
2018-06-05T05:14:11.126Z,33.85
2018-06-05T05:15:15.987Z,34.53
2018-06-05T05:16:20.349Z,35.10
2018-06-05T05:17:25.629Z,34.50
2018-06-05T05:18:29.858Z,41.40
2018-06-05T05:19:34.071Z,38.55
2018-06-05T05:20:38.625Z,40.48
2018-06-05T05:21:43.776Z,37.08
2018-06-05T05:22:48.004Z,37.03
2018-06-05T05:23:52.325Z,40.78
2018-06-05T05:24:56.573Z,35.75
2018-06-05T05:26:01.931Z,39.45
2018-06-05T05:27:06.911Z,36.70
2018-06-05T05:28:11.264Z,37.28
2018-06-05T05:29:15.416Z,36.75
2018-06-05T05:30:19.640Z,43.92
2018-06-05T05:31:23.828Z,35.95
2018-06-05T05:32:28.606Z,34.80
2018-06-05T05:33:33.001Z,36.75
2018-06-05T05:34:37.152Z,36.10
2018-06-05T05:35:41.287Z,35.30
2018-06-05T05:36:45.787Z,37.00
2018-06-05T05:37:51.041Z,36.85
2018-06-05T05:38:55.364Z,34.73
2018-06-05T05:39:59.579Z,34.27
2018-06-05T05:41:04.721Z,33.85
2018-06-05T05:42:08.952Z,32.17
2018-06-05T05:43:13.586Z,29.75
2018-06-05T05:44:17.829Z,30.20
2018-06-05T05:45:22.047Z,30.35
2018-06-05T05:46:26.281Z,30.27
2018-06-05T05:47:30.660Z,30.52
2018-06-05T05:48:34.885Z,29.67
2018-06-05T05:49:39.414Z,30.32
2018-06-05T05:50:43.638Z,29.85
2018-06-05T05:51:47.908Z,30.23
2018-06-05T05:52:52.124Z,31.00
2018-06-05T05:53:56.831Z,30.40
2018-06-05T05:55:01.574Z,30.32
2018-06-05T05:56:05.821Z,29.50
2018-06-05T05:57:10.849Z,30.27
2018-06-05T05:58:15.123Z,30.10
2018-06-05T05:59:19.525Z,29.52
2018-06-05T06:00:26.157Z,28.60
2018-06-05T06:01:30.415Z,30.20
2018-06-05T06:02:35.748Z,29.30
2018-06-05T06:03:40.331Z,29.25
2018-06-05T06:04:47.517Z,29.37
2018-06-05T06:05:51.847Z,30.35
2018-06-05T06:06:57.583Z,28.00
2018-06-05T06:08:01.822Z,28.95
2018-06-05T06:09:08.022Z,27.02
2018-06-05T06:10:12.251Z,27.25
2018-06-05T06:11:16.802Z,28.35
2018-06-05T06:12:22.121Z,27.62
2018-06-05T06:13:26.719Z,27.93
2018-06-05T06:14:31.292Z,28.05
2018-06-05T06:15:35.828Z,26.95
2018-06-05T06:16:40.066Z,27.37
2018-06-05T06:17:44.778Z,27.62
2018-06-05T06:18:50.441Z,27.75
2018-06-05T06:19:54.665Z,27.10
2018-06-05T06:20:58.932Z,28.55
2018-06-05T06:22:03.892Z,27.70
2018-06-05T06:23:08.531Z,27.75
2018-06-05T06:24:13.896Z,26.55
2018-06-05T06:25:18.617Z,27.67
2018-06-05T06:26:24.184Z,28.80
2018-06-05T06:27:29.013Z,27.82
2018-06-05T06:28:33.590Z,27.15
2018-06-05T06:29:38.372Z,28.73
2018-06-05T06:30:43.264Z,26.45
2018-06-05T06:31:47.571Z,26.07
2018-06-05T06:32:54.801Z,25.70
2018-06-05T06:33:59.036Z,26.43
2018-06-05T06:35:04.034Z,25.97
2018-06-05T06:36:08.265Z,26.55
2018-06-05T06:37:12.560Z,26.50
2018-06-05T06:38:17.312Z,25.75
2018-06-05T06:39:21.592Z,25.25
2018-06-05T06:40:26.440Z,25.70
2018-06-05T06:41:30.757Z,26.50
2018-06-05T06:42:34.981Z,26.48
2018-06-05T06:43:40.736Z,25.82
2018-06-05T06:44:45.026Z,25.72
2018-06-05T06:45:49.229Z,24.82
2018-06-05T06:46:53.502Z,24.70
2018-06-05T06:47:59.197Z,25.30
2018-06-05T06:49:03.972Z,26.12
2018-06-05T06:50:08.510Z,25.08
2018-06-05T06:51:12.713Z,25.88
2018-06-05T06:52:17.155Z,24.37
2018-06-05T06:53:21.492Z,24.47
2018-06-05T06:54:25.843Z,24.55
2018-06-05T06:55:30.112Z,25.82
2018-06-05T06:56:34.382Z,25.75
2018-06-05T06:57:38.896Z,24.43
2018-06-05T06:58:43.221Z,24.27
2018-06-05T06:59:48.673Z,24.70
2018-06-05T07:00:53.182Z,25.00
2018-06-05T07:01:57.455Z,23.92
2018-06-05T07:03:02.414Z,24.27
2018-06-05T07:04:07.143Z,22.80
2018-06-05T07:05:11.702Z,22.45
2018-06-05T07:06:16.788Z,24.05
2018-06-05T07:07:21.260Z,22.60
2018-06-05T07:08:25.938Z,22.55
2018-06-05T07:09:30.417Z,23.97
2018-06-05T07:10:36.340Z,22.52
2018-06-05T07:11:40.822Z,23.53
2018-06-05T07:12:45.307Z,23.75
2018-06-05T07:13:50.288Z,26.48
2018-06-05T07:14:54.707Z,25.85
2018-06-05T07:15:59.592Z,25.27
2018-06-05T07:17:04.607Z,26.60
2018-06-05T07:18:08.995Z,25.60
2018-06-05T07:19:13.461Z,24.85
2018-06-05T07:20:18.152Z,26.20
2018-06-05T07:21:22.747Z,28.32
2018-06-05T07:22:27.199Z,27.02
2018-06-05T07:23:31.511Z,26.27
2018-06-05T07:24:36.173Z,25.30
2018-06-05T07:25:40.502Z,24.33
2018-06-05T07:26:44.771Z,25.23
2018-06-05T07:27:49.371Z,25.12
2018-06-05T07:28:54.206Z,24.77
2018-06-05T07:29:58.782Z,26.07
2018-06-05T07:31:03.067Z,25.25
2018-06-05T07:32:07.318Z,26.65
2018-06-05T07:33:11.966Z,26.62
2018-06-05T07:34:16.427Z,26.00
2018-06-05T07:35:20.671Z,25.35
2018-06-05T07:36:25.966Z,24.70
2018-06-05T07:37:30.756Z,23.98
2018-06-05T07:38:35.131Z,23.90
2018-06-05T07:39:39.356Z,25.05
2018-06-05T07:40:44.097Z,25.17
2018-06-05T07:41:48.460Z,24.57
2018-06-05T07:42:53.590Z,24.80
2018-06-05T07:43:58.082Z,25.75
2018-06-05T07:45:02.918Z,25.95
2018-06-05T07:46:08.547Z,25.88
2018-06-05T07:47:12.839Z,24.80
2018-06-05T07:48:17.308Z,25.03
2018-06-05T07:49:24.625Z,25.70
2018-06-05T07:50:29.793Z,26.62
2018-06-05T07:51:51.343Z,26.25
2018-06-05T07:58:40.344Z,27.87
2018-06-05T07:59:44.647Z,25.32
2018-06-05T08:00:50.942Z,26.10
2018-06-05T08:02:02.013Z,27.95
2018-06-05T08:03:13.108Z,36.73
2018-06-05T08:04:19.887Z,28.50
2018-06-05T08:05:29.720Z,27.48
2018-06-05T08:06:35.134Z,26.40
2018-06-05T08:07:42.598Z,45.28
2018-06-05T08:08:47.043Z,36.98
2018-06-05T08:09:52.866Z,31.15
2018-06-05T08:10:57.907Z,37.73
2018-06-05T08:12:02.147Z,32.17
2018-06-05T08:13:07.413Z,26.95
2018-06-05T08:14:11.976Z,25.92
2018-06-05T08:15:16.655Z,31.37
2018-06-05T08:16:20.918Z,31.40
2018-06-05T08:17:26.507Z,35.25
2018-06-05T08:18:31.105Z,39.20
2018-06-05T08:19:35.457Z,31.68
2018-06-05T08:20:40.265Z,29.17
2018-06-05T08:21:44.509Z,33.98
2018-06-05T08:22:55.744Z,30.50
2018-06-05T08:24:01.283Z,95.55
2018-06-05T08:25:05.552Z,92.15
2018-06-05T08:26:10.374Z,52.27
2018-06-05T08:27:14.890Z,28.32
2018-06-05T08:28:19.346Z,31.55
2018-06-05T08:29:25.122Z,25.35
2018-06-05T08:30:31.293Z,36.77
2018-06-05T08:31:51.353Z,35.35
2018-06-05T08:33:03.080Z,33.80
2018-06-05T08:34:07.670Z,33.63
2018-06-05T08:35:12.490Z,33.58
2018-06-05T08:36:18.163Z,24.72
2018-06-05T08:37:23.748Z,35.05
2018-06-05T08:38:28.383Z,29.30
2018-06-05T08:39:35.248Z,40.85
2018-06-05T08:40:40.073Z,30.00
2018-06-05T08:41:44.647Z,36.45
2018-06-05T08:42:49.137Z,36.03
2018-06-05T08:43:54.339Z,37.83
2018-06-05T08:44:58.890Z,43.17
2018-06-05T08:46:03.313Z,50.13
2018-06-05T08:47:07.888Z,38.38
2018-06-05T08:48:13.026Z,42.78
2018-06-05T08:49:17.508Z,33.80
2018-06-05T08:50:21.936Z,34.23
2018-06-05T08:51:26.734Z,35.75
2018-06-05T08:52:32.187Z,31.35
2018-06-05T08:53:36.651Z,30.48
2018-06-05T08:54:41.823Z,30.62
2018-06-05T08:55:46.542Z,29.95
2018-06-05T08:56:51.111Z,28.45
2018-06-05T08:57:55.607Z,27.95
2018-06-05T08:59:01.138Z,28.65
2018-06-05T09:00:05.495Z,27.75
2018-06-05T09:01:10.903Z,28.47
2018-06-05T09:02:15.734Z,29.15
2018-06-05T09:03:21.222Z,30.70
2018-06-05T09:04:25.476Z,28.70
2018-06-05T09:05:30.186Z,28.80
2018-06-05T09:06:34.691Z,30.92
2018-06-05T09:07:38.934Z,30.05
2018-06-05T09:08:44.412Z,30.27
2018-06-05T09:09:49.832Z,29.87
2018-06-05T09:10:54.332Z,28.30
2018-06-05T09:11:58.864Z,28.83
2018-06-05T09:13:04.885Z,30.48
2018-06-05T09:14:09.555Z,29.95
2018-06-05T09:15:13.844Z,30.75
2018-06-05T09:16:18.354Z,29.18
2018-06-05T09:17:22.794Z,30.43
2018-06-05T09:18:27.022Z,29.95
2018-06-05T09:19:31.451Z,30.68
2018-06-05T09:20:35.712Z,30.33
2018-06-05T09:21:39.995Z,30.27
2018-06-05T09:22:44.351Z,27.50
2018-06-05T09:23:48.590Z,28.15
2018-06-05T09:24:53.251Z,27.52
2018-06-05T09:25:58.149Z,25.70
2018-06-05T09:27:02.461Z,27.48
2018-06-05T09:28:09.940Z,27.52
2018-06-05T09:29:14.211Z,28.42
2018-06-05T09:30:18.564Z,27.67
2018-06-05T09:31:23.788Z,26.65
2018-06-05T09:32:28.594Z,27.80
2018-06-05T09:33:32.892Z,31.17
2018-06-05T09:34:37.213Z,29.37
2018-06-05T09:35:41.906Z,29.95
2018-06-05T09:36:46.195Z,28.38
2018-06-05T09:37:50.444Z,27.23
2018-06-05T09:38:54.698Z,27.50
2018-06-05T09:39:59.427Z,27.00
2018-06-05T09:41:03.685Z,27.35
2018-06-05T09:42:08.568Z,26.27
2018-06-05T09:43:12.853Z,26.62
2018-06-05T09:44:17.101Z,28.10
2018-06-05T09:45:21.473Z,25.32
2018-06-05T09:46:25.766Z,27.32
2018-06-05T09:47:30.389Z,26.35
2018-06-05T09:48:34.700Z,26.68
2018-06-05T09:49:38.953Z,32.95
2018-06-05T09:50:46.587Z,29.25
2018-06-05T09:51:50.832Z,29.75
2018-06-05T09:52:55.617Z,29.82
2018-06-05T09:54:00.937Z,32.42
2018-06-05T09:55:05.434Z,32.50
2018-06-05T09:56:09.818Z,31.02
2018-06-05T09:57:14.384Z,30.45
2018-06-05T09:58:18.845Z,29.12
2018-06-05T09:59:23.766Z,28.57
2018-06-05T10:00:33.346Z,29.27
2018-06-05T10:01:43.664Z,30.72
2018-06-05T10:02:48.876Z,32.90
2018-06-05T10:03:54.789Z,32.33
2018-06-05T10:05:00.455Z,31.57
2018-06-05T10:06:04.806Z,30.27
2018-06-05T10:07:10.354Z,31.17
2018-06-05T10:08:14.811Z,32.75
2018-06-05T10:09:19.397Z,31.85
2018-06-05T10:10:23.731Z,33.28
2018-06-05T10:11:28.033Z,34.07
2018-06-05T10:12:35.682Z,32.60
2018-06-05T10:13:43.104Z,33.80
2018-06-05T10:14:50.729Z,33.90
2018-06-05T10:18:03.498Z,31.60
2018-06-05T10:19:08.783Z,32.08
2018-06-05T10:20:13.320Z,32.95
2018-06-05T10:21:17.639Z,34.67
2018-06-05T10:22:22.062Z,32.90
2018-06-05T10:23:26.323Z,32.00
2018-06-05T10:24:31.419Z,32.42
2018-06-05T10:25:36.511Z,31.65
2018-06-05T10:26:43.635Z,31.07
2018-06-05T10:27:49.515Z,30.82
2018-06-05T10:28:53.819Z,29.97
2018-06-05T10:29:58.089Z,28.67
2018-06-05T10:31:04.209Z,29.15
2018-06-05T10:32:09.314Z,30.13
2018-06-05T10:33:14.299Z,30.77
2018-06-05T10:34:18.701Z,27.73
2018-06-05T10:35:23.178Z,30.27
2018-06-05T10:36:28.195Z,29.23
2018-06-05T10:37:33.689Z,30.25
2018-06-05T10:38:38.305Z,29.70
2018-06-05T10:39:42.807Z,30.82
2018-06-05T10:40:47.485Z,31.15
2018-06-05T10:41:53.408Z,31.90
2018-06-05T10:42:58.827Z,30.25
2018-06-05T10:44:03.133Z,29.93
2018-06-05T10:45:07.501Z,31.20
2018-06-05T10:46:11.806Z,29.77
2018-06-05T10:47:16.396Z,30.80
2018-06-05T10:48:23.803Z,32.63
2018-06-05T10:49:28.395Z,29.42
2018-06-05T10:50:38.977Z,31.10
2018-06-05T10:51:44.659Z,30.90
2018-06-05T10:52:52.279Z,31.05
2018-06-05T10:53:56.819Z,31.23
2018-06-05T10:55:01.364Z,29.87
2018-06-05T10:56:06.329Z,30.10
2018-06-05T10:57:10.822Z,33.02
2018-06-05T10:58:15.700Z,32.90
2018-06-05T10:59:19.984Z,32.20
2018-06-05T11:00:26.305Z,30.82
2018-06-05T11:01:30.698Z,33.28
2018-06-05T11:02:35.255Z,33.15
2018-06-05T11:03:41.311Z,32.83
2018-06-05T11:04:45.566Z,32.10
2018-06-05T11:05:49.873Z,33.53
2018-06-05T11:06:54.997Z,32.53
2018-06-05T11:07:59.362Z,31.62
2018-06-05T11:09:04.829Z,30.20
2018-06-05T11:10:12.115Z,33.18
2018-06-05T11:11:16.722Z,30.37
2018-06-05T11:12:21.170Z,31.82
2018-06-05T11:13:25.483Z,32.75
2018-06-05T11:14:30.454Z,31.90
2018-06-05T11:15:38.506Z,32.05
2018-06-05T11:16:42.808Z,32.58
2018-06-05T11:17:47.063Z,33.60
2018-06-05T11:18:51.492Z,36.33
2018-06-05T11:19:56.273Z,39.00
2018-06-05T11:21:07.706Z,41.28
2018-06-05T11:22:14.089Z,36.17
2018-06-05T11:23:18.609Z,39.90
2018-06-05T11:24:23.739Z,39.20
2018-06-05T11:25:29.158Z,40.78
2018-06-05T11:26:34.719Z,40.08
2018-06-05T11:27:40.780Z,42.93
2018-06-05T11:28:45.064Z,43.15
2018-06-05T11:29:50.588Z,40.80
2018-06-05T11:30:54.867Z,40.92
2018-06-05T11:31:59.396Z,42.53
2018-06-05T11:33:03.674Z,42.13
2018-06-05T11:34:07.988Z,39.63
2018-06-05T11:35:12.276Z,40.92
2018-06-05T11:36:16.753Z,40.63
2018-06-05T11:37:24.211Z,36.38
2018-06-05T11:38:28.714Z,37.28
2018-06-05T11:39:33.445Z,36.10
2018-06-05T11:40:37.740Z,39.40
2018-06-05T11:41:43.017Z,37.38
2018-06-05T11:42:47.901Z,35.63
2018-06-05T11:43:52.192Z,33.70
2018-06-05T11:44:56.459Z,36.00
2018-06-05T11:46:02.629Z,36.40
2018-06-05T11:47:08.305Z,35.28
2018-06-05T11:48:12.562Z,37.30
2018-06-05T11:49:17.268Z,36.40
2018-06-05T11:50:22.149Z,34.73
2018-06-05T11:51:29.054Z,35.50
2018-06-05T11:52:36.906Z,34.08
2018-06-05T11:53:47.465Z,35.55
2018-06-05T11:54:54.433Z,38.05
2018-06-05T11:56:00.332Z,36.90
2018-06-05T11:57:05.714Z,39.18
2018-06-05T11:58:12.750Z,36.65
2018-06-05T11:59:18.105Z,38.15
2018-06-05T12:00:22.673Z,37.60
2018-06-05T12:01:26.962Z,35.98
2018-06-05T12:02:32.359Z,36.88
2018-06-05T12:03:37.651Z,36.05
2018-06-05T12:04:43.902Z,34.95
2018-06-05T12:05:49.578Z,38.08
2018-06-05T12:06:54.086Z,35.98
2018-06-05T12:08:00.892Z,35.23
2018-06-05T12:09:07.162Z,36.28
2018-06-05T12:10:12.649Z,37.63
2018-06-05T12:11:19.500Z,36.50
2018-06-05T12:12:23.857Z,38.08
2018-06-05T12:13:28.494Z,37.38
2018-06-05T12:14:32.834Z,35.95
2018-06-05T12:15:37.799Z,35.97
2018-06-05T12:16:44.866Z,38.10
2018-06-05T12:17:49.995Z,45.05
2018-06-05T12:18:54.585Z,58.00
2018-06-05T12:19:58.916Z,89.80
2018-06-05T12:21:03.307Z,93.87
2018-06-05T12:22:11.229Z,73.92
2018-06-05T12:24:26.719Z,72.80
2018-06-05T12:25:31.270Z,68.28
2018-06-05T12:26:35.894Z,46.42
2018-06-05T12:27:45.913Z,65.60
2018-06-05T12:28:52.009Z,54.05
2018-06-05T12:29:56.769Z,59.08
2018-06-05T12:31:01.327Z,52.70
2018-06-05T12:32:06.424Z,41.20
2018-06-05T12:33:13.072Z,44.58
2018-06-05T12:34:28.662Z,49.95
2018-06-05T12:35:33.198Z,53.25
2018-06-05T12:36:42.545Z,41.75
2018-06-05T12:37:49.533Z,47.35
2018-06-05T12:38:54.347Z,53.08
2018-06-05T12:39:59.113Z,75.83
2018-06-05T12:41:03.915Z,60.78
2018-06-05T12:42:08.775Z,54.05
2018-06-05T12:43:13.356Z,42.50
2018-06-05T12:44:17.667Z,47.30
2018-06-05T12:45:22.309Z,43.65
2018-06-05T12:46:27.628Z,34.63
2018-06-05T12:47:34.471Z,37.13
2018-06-05T12:48:41.291Z,42.05
2018-06-05T12:49:46.529Z,40.92
2018-06-05T12:50:58.541Z,35.20
2018-06-05T12:52:04.763Z,48.23
2018-06-05T12:53:11.916Z,44.48
2018-06-05T12:54:16.402Z,47.17
2018-06-05T12:55:22.346Z,51.92
2018-06-05T12:56:27.800Z,53.40
2018-06-05T12:57:32.504Z,44.35
2018-06-05T12:58:37.028Z,42.80
2018-06-05T12:59:41.543Z,41.18
2018-06-05T13:01:48.903Z,37.48
2018-06-05T13:02:53.273Z,40.15
2018-06-05T13:04:03.985Z,36.08
2018-06-05T13:05:10.423Z,31.45
2018-06-05T13:06:14.839Z,29.90
2018-06-05T13:07:20.564Z,29.87
2018-06-05T13:08:26.204Z,26.95
2018-06-05T13:09:30.473Z,27.02
2018-06-05T13:10:36.532Z,27.87
2018-06-05T13:11:42.449Z,25.90
2018-06-05T13:12:48.661Z,27.58
2018-06-05T13:13:55.459Z,25.37
2018-06-05T13:15:00.046Z,26.80
2018-06-05T13:16:04.399Z,26.35
2018-06-05T13:17:08.696Z,24.52
2018-06-05T13:18:15.112Z,26.07
2018-06-05T13:19:20.431Z,26.62
2018-06-05T13:20:25.343Z,25.30
2018-06-05T13:21:30.996Z,26.48
2018-06-05T13:22:35.596Z,25.48
2018-06-05T13:23:40.011Z,26.55
2018-06-05T13:24:44.324Z,26.25
2018-06-05T13:25:48.944Z,26.33
2018-06-05T13:26:52.980Z,28.70
2018-06-05T13:27:58.296Z,28.85
2018-06-05T13:29:03.129Z,27.05
2018-06-05T13:30:07.610Z,27.27
2018-06-05T13:31:12.123Z,27.65
2018-06-05T13:32:16.716Z,28.53
2018-06-05T13:33:21.238Z,28.12
2018-06-05T13:34:25.812Z,27.42
2018-06-05T13:35:30.385Z,27.93
2018-06-05T13:36:36.191Z,28.67
2018-06-05T13:37:40.609Z,25.62
2018-06-05T13:38:49.488Z,25.35
2018-06-05T13:39:54.466Z,23.62
2018-06-05T13:41:05.971Z,23.50
2018-06-05T13:42:10.236Z,23.92
2018-06-05T13:43:14.524Z,25.65
2018-06-05T13:44:20.846Z,26.35
2018-06-05T13:45:25.767Z,25.12
2018-06-05T13:46:30.819Z,24.87
2018-06-05T13:47:35.133Z,26.48
2018-06-05T13:48:39.661Z,23.47
2018-06-05T13:49:44.124Z,24.00
2018-06-05T13:50:48.460Z,24.15
2018-06-05T13:51:52.909Z,22.35
2018-06-05T13:52:57.402Z,23.40
2018-06-05T13:54:02.175Z,23.35
2018-06-05T13:55:08.114Z,26.50
2018-06-05T13:56:13.308Z,25.60
2018-06-05T13:57:18.235Z,24.25
2018-06-05T13:58:22.691Z,23.50
2018-06-05T13:59:30.627Z,24.32
2018-06-05T14:00:36.307Z,23.70
2018-06-05T14:01:41.292Z,23.52
2018-06-05T14:02:46.292Z,23.80
2018-06-05T14:03:50.872Z,24.18
2018-06-05T14:04:55.438Z,25.05
2018-06-05T14:06:01.405Z,27.45
2018-06-05T14:07:07.068Z,28.50
2018-06-05T14:08:11.360Z,33.75
2018-06-05T14:09:17.471Z,31.17